Time;durP1;ratioP1;P1;durP2;ratioP2;P2;SDS_P1;SDS_P2;PMS_P1;PMS_P2;Temp;Humidity;BMP_temperature;BMP_pressure;BME280_temperature;BME280_humidity;BME280_pressure;Samples;Min_cycle;Max_cycle;Signal;HPM_P1;HPM_P2
2023/12/28 00:00:34;;;;;;;3.92;2.10;;;9.10;99.90;;;;;;5021402;28;20061;-35
2023/12/28 00:03:00;;;;;;;3.75;2.10;;;9.10;99.90;;;;;;5018334;28;20053;-35
2023/12/28 00:05:26;;;;;;;4.60;1.95;;;9.10;99.90;;;;;;5021419;28;20057;-35
2023/12/28 00:07:57;;;;;;;4.53;2.20;;;9.10;99.90;;;;;;5016708;28;20053;-35
2023/12/28 00:10:27;;;;;;;3.50;2.08;;;9.10;99.90;;;;;;5023019;28;20056;-34
2023/12/28 00:12:54;;;;;;;5.78;2.30;;;9.20;99.90;;;;;;5019592;28;20129;-35
2023/12/28 00:15:19;;;;;;;4.43;2.10;;;9.10;99.90;;;;;;5021011;28;20538;-34
2023/12/28 00:17:45;;;;;;;5.18;2.25;;;9.20;99.90;;;;;;5020272;28;20061;-35
2023/12/28 00:20:12;;;;;;;4.10;2.45;;;9.10;99.90;;;;;;5022350;28;20638;-35
2023/12/28 00:22:38;;;;;;;5.38;2.60;;;9.10;99.90;;;;;;5022465;28;20136;-35
2023/12/28 00:25:04;;;;;;;3.17;2.00;;;9.10;99.90;;;;;;5021336;28;20072;-35
2023/12/28 00:27:30;;;;;;;7.40;2.60;;;9.10;99.90;;;;;;5025191;28;20057;-35
2023/12/28 00:29:56;;;;;;;4.28;2.17;;;9.10;99.90;;;;;;5015191;28;20137;-34
2023/12/28 00:32:21;;;;;;;5.25;2.03;;;9.10;99.90;;;;;;5024548;28;20082;-35
2023/12/28 00:34:47;;;;;;;5.35;2.47;;;9.20;99.90;;;;;;5026591;28;20055;-34
2023/12/28 00:37:13;;;;;;;4.78;2.50;;;9.20;99.90;;;;;;5020104;28;20091;-34
2023/12/28 00:39:40;;;;;;;3.85;2.00;;;9.20;99.90;;;;;;5022354;28;20123;-35
2023/12/28 00:42:06;;;;;;;6.97;2.25;;;9.20;99.90;;;;;;5022959;28;20055;-35
2023/12/28 00:44:32;;;;;;;5.88;2.53;;;9.20;99.90;;;;;;5022564;28;20049;-37
2023/12/28 00:46:58;;;;;;;5.57;2.78;;;9.20;99.90;;;;;;5021741;28;20053;-37
2023/12/28 00:49:23;;;;;;;5.57;2.45;;;9.20;99.90;;;;;;5019387;28;20108;-37
2023/12/28 00:51:49;;;;;;;6.20;2.53;;;9.20;99.90;;;;;;5020192;28;20562;-37
2023/12/28 00:54:15;;;;;;;5.20;2.75;;;9.20;99.90;;;;;;5022024;28;20060;-35
2023/12/28 00:56:40;;;;;;;7.70;2.55;;;9.20;99.90;;;;;;5022860;28;20180;-36
2023/12/28 00:59:06;;;;;;;5.57;2.42;;;9.20;99.90;;;;;;5023499;28;20402;-35
2023/12/28 01:01:33;;;;;;;3.95;2.05;;;9.10;99.90;;;;;;5024526;28;20235;-36
2023/12/28 01:03:59;;;;;;;6.93;2.42;;;9.20;99.90;;;;;;5026254;28;20491;-36
2023/12/28 01:06:28;;;;;;;6.03;2.55;;;9.20;99.90;;;;;;5027783;28;20045;-35
2023/12/28 01:08:55;;;;;;;5.55;2.50;;;9.10;99.90;;;;;;5022702;28;20046;-36
2023/12/28 01:11:21;;;;;;;6.68;2.60;;;9.20;99.90;;;;;;5024100;28;20510;-36
2023/12/28 01:13:46;;;;;;;6.28;2.67;;;9.10;99.90;;;;;;5026793;28;20084;-36
2023/12/28 01:16:13;;;;;;;6.18;2.25;;;9.10;99.90;;;;;;5022806;28;20047;-37
2023/12/28 01:18:39;;;;;;;5.75;2.42;;;9.20;99.90;;;;;;5025977;28;20572;-36
2023/12/28 01:21:05;;;;;;;7.75;2.58;;;9.20;99.90;;;;;;5029373;28;20555;-36
2023/12/28 01:23:32;;;;;;;5.53;2.20;;;9.30;99.90;;;;;;5023935;28;20061;-36
2023/12/28 01:25:58;;;;;;;4.80;2.35;;;9.30;99.90;;;;;;5021543;28;20045;-35
2023/12/28 01:28:24;;;;;;;7.10;2.25;;;9.30;99.90;;;;;;5025721;28;20045;-35
2023/12/28 01:30:50;;;;;;;6.20;2.25;;;9.30;99.90;;;;;;5027604;28;20091;-35
2023/12/28 01:33:15;;;;;;;5.28;2.55;;;9.30;99.90;;;;;;5026466;28;20053;-35
2023/12/28 01:35:41;;;;;;;7.90;2.50;;;9.30;99.90;;;;;;5026742;28;20048;-35
2023/12/28 01:38:07;;;;;;;7.10;2.50;;;9.30;99.90;;;;;;5024387;28;20041;-34
2023/12/28 01:40:33;;;;;;;7.50;2.83;;;9.30;99.90;;;;;;5028589;28;20060;-35
2023/12/28 01:42:59;;;;;;;6.22;2.45;;;9.20;99.90;;;;;;5023188;28;20061;-39
2023/12/28 01:45:25;;;;;;;7.22;2.63;;;9.20;99.90;;;;;;5025296;28;20049;-35
2023/12/28 01:47:53;;;;;;;7.97;2.63;;;9.20;99.90;;;;;;5025826;28;20050;-34
2023/12/28 01:50:20;;;;;;;7.57;2.55;;;9.30;99.90;;;;;;5020949;28;20830;-36
2023/12/28 01:52:46;;;;;;;6.28;2.03;;;9.20;99.90;;;;;;5027998;28;20476;-36
2023/12/28 01:55:13;;;;;;;7.80;2.40;;;9.30;99.90;;;;;;5023276;28;20049;-35
2023/12/28 01:57:39;;;;;;;12.55;2.40;;;9.30;99.90;;;;;;5025737;28;20545;-35
2023/12/28 02:00:06;;;;;;;6.50;2.35;;;9.30;99.90;;;;;;5026865;28;20125;-35
2023/12/28 02:02:33;;;;;;;7.28;2.30;;;9.40;99.90;;;;;;5025943;28;20514;-35
2023/12/28 02:04:59;;;;;;;6.35;2.70;;;9.40;99.90;;;;;;5026887;28;20111;-35
2023/12/28 02:07:25;;;;;;;9.23;2.38;;;9.40;99.90;;;;;;5027648;28;20057;-35
2023/12/28 02:09:51;;;;;;;8.35;2.20;;;9.40;99.90;;;;;;5022057;28;20049;-35
2023/12/28 02:12:17;;;;;;;7.25;2.30;;;9.40;99.90;;;;;;5020651;28;20099;-35
2023/12/28 02:14:43;;;;;;;11.13;2.70;;;9.40;99.90;;;;;;5022112;28;20049;-35
2023/12/28 02:17:31;;;;;;;10.35;2.45;;;9.40;99.90;;;;;;5026148;28;20069;-35
2023/12/28 02:19:58;;;;;;;8.80;1.98;;;9.40;99.90;;;;;;5015863;28;20049;-35
2023/12/28 02:22:26;;;;;;;6.10;2.30;;;9.40;99.90;;;;;;5026539;28;20120;-35
2023/12/28 02:25:08;;;;;;;9.77;2.30;;;9.40;99.90;;;;;;5025920;28;20119;-36
2023/12/28 02:27:48;;;;;;;8.18;2.55;;;9.50;99.90;;;;;;5011729;28;20096;-35
2023/12/28 02:30:16;;;;;;;8.52;1.85;;;9.50;99.90;;;;;;5026914;28;20041;-36
2023/12/28 02:33:08;;;;;;;12.70;2.35;;;9.60;99.90;;;;;;5020295;28;20045;-35
2023/12/28 02:35:39;;;;;;;8.38;1.77;;;9.60;99.90;;;;;;5024447;28;20516;-36
2023/12/28 02:38:08;;;;;;;7.53;2.40;;;9.70;99.90;;;;;;5021795;28;20422;-35
2023/12/28 02:40:39;;;;;;;6.13;1.55;;;9.70;99.90;;;;;;5026340;28;20060;-36
2023/12/28 02:43:08;;;;;;;7.82;1.90;;;9.70;99.90;;;;;;5022694;28;20046;-35
2023/12/28 02:45:35;;;;;;;6.97;1.58;;;9.70;99.90;;;;;;5025068;28;20155;-35
2023/12/28 02:48:01;;;;;;;8.43;1.90;;;9.80;99.90;;;;;;5022821;28;20049;-35
2023/12/28 02:50:27;;;;;;;7.18;2.20;;;9.80;99.90;;;;;;5022006;28;20056;-36
2023/12/28 02:52:53;;;;;;;6.70;1.60;;;9.80;99.90;;;;;;5021069;28;20068;-35
2023/12/28 02:55:18;;;;;;;8.05;1.88;;;9.80;99.90;;;;;;5020237;28;20053;-36
2023/12/28 02:57:44;;;;;;;8.20;1.77;;;9.90;99.90;;;;;;5025954;28;20057;-35
2023/12/28 03:00:10;;;;;;;6.05;1.88;;;9.90;99.90;;;;;;5024047;28;20060;-36
2023/12/28 03:02:39;;;;;;;4.05;0.90;;;9.90;99.90;;;;;;5026386;28;20072;-36
2023/12/28 03:05:05;;;;;;;5.95;1.42;;;9.90;99.90;;;;;;5027961;28;20057;-35
2023/12/28 03:07:32;;;;;;;5.35;1.33;;;9.90;99.90;;;;;;5024345;28;20340;-35
2023/12/28 03:09:58;;;;;;;4.38;1.33;;;9.90;99.90;;;;;;5019713;28;20072;-34
2023/12/28 03:12:23;;;;;;;7.78;1.70;;;9.90;99.90;;;;;;5020671;28;20499;-35
2023/12/28 03:14:50;;;;;;;7.55;1.58;;;9.90;99.90;;;;;;5029006;28;20350;-35
2023/12/28 03:17:15;;;;;;;7.50;1.60;;;10.00;99.90;;;;;;5021671;28;20053;-36
2023/12/28 03:19:41;;;;;;;10.88;1.55;;;10.00;99.90;;;;;;5023069;28;20422;-35
2023/12/28 03:22:07;;;;;;;7.40;1.15;;;10.00;99.90;;;;;;5019356;28;20057;-35
2023/12/28 03:24:33;;;;;;;3.25;1.00;;;10.00;99.90;;;;;;5018632;28;20045;-35
2023/12/28 03:26:58;;;;;;;6.10;1.52;;;10.00;99.90;;;;;;5024408;28;20431;-35
2023/12/28 03:29:24;;;;;;;4.40;1.10;;;10.00;99.90;;;;;;5023579;28;20103;-35
2023/12/28 03:31:50;;;;;;;6.22;1.33;;;10.10;99.90;;;;;;5025004;28;20045;-35
2023/12/28 03:34:17;;;;;;;4.85;1.15;;;10.00;99.90;;;;;;5022124;28;20049;-35
2023/12/28 03:36:43;;;;;;;5.65;1.45;;;10.10;99.90;;;;;;5019687;28;20489;-35
2023/12/28 03:39:08;;;;;;;5.50;1.58;;;10.10;99.90;;;;;;5021154;28;20056;-35
2023/12/28 03:41:34;;;;;;;6.28;1.05;;;10.10;99.90;;;;;;5018653;28;20045;-35
2023/12/28 03:44:00;;;;;;;8.25;1.67;;;10.10;99.90;;;;;;5050420;28;20045;-35
2023/12/28 03:46:26;;;;;;;6.80;1.35;;;10.10;99.90;;;;;;5025914;28;20046;-35
2023/12/28 03:48:53;;;;;;;4.90;1.23;;;10.20;99.90;;;;;;5027544;28;20478;-35
2023/12/28 03:51:19;;;;;;;4.70;1.02;;;10.20;99.90;;;;;;5024451;28;20095;-35
2023/12/28 03:53:44;;;;;;;3.85;1.70;;;10.20;99.90;;;;;;5022935;28;20085;-36
2023/12/28 03:56:24;;;;;;;8.68;1.20;;;10.20;99.90;;;;;;5020964;28;20594;-35
2023/12/28 03:58:50;;;;;;;6.25;0.95;;;10.20;99.90;;;;;;5021037;28;20632;-35
2023/12/28 04:01:20;;;;;;;5.88;0.98;;;10.30;99.90;;;;;;5017795;28;20053;-36
2023/12/28 04:03:47;;;;;;;5.90;1.20;;;10.30;99.90;;;;;;5020774;28;20559;-35
2023/12/28 04:06:14;;;;;;;8.85;1.58;;;10.30;99.90;;;;;;5023680;28;20052;-35
2023/12/28 04:08:40;;;;;;;6.32;1.65;;;10.30;99.90;;;;;;5024759;28;20128;-36
2023/12/28 04:11:06;;;;;;;5.50;1.55;;;10.30;99.90;;;;;;5017342;28;20046;-35
2023/12/28 04:13:32;;;;;;;9.98;1.42;;;10.30;99.90;;;;;;5006534;28;20057;-35
2023/12/28 04:15:58;;;;;;;8.30;1.20;;;10.30;99.90;;;;;;5001954;28;20120;-36
2023/12/28 04:18:23;;;;;;;6.85;1.60;;;10.30;99.90;;;;;;5000739;28;20054;-35
2023/12/28 04:20:49;;;;;;;6.35;1.15;;;10.30;99.90;;;;;;5000240;28;20415;-34
2023/12/28 04:23:15;;;;;;;4.57;1.40;;;10.20;99.90;;;;;;4999543;28;20056;-35
2023/12/28 04:25:41;;;;;;;5.55;0.98;;;10.20;99.90;;;;;;4998826;28;20058;-35
2023/12/28 04:28:07;;;;;;;6.10;1.30;;;10.10;99.90;;;;;;5002904;28;20072;-34
2023/12/28 04:30:33;;;;;;;6.60;1.20;;;10.10;99.90;;;;;;5001374;28;20487;-35
2023/12/28 04:33:00;;;;;;;8.10;1.40;;;10.10;99.90;;;;;;5000193;28;20049;-35
2023/12/28 04:35:25;;;;;;;10.80;1.60;;;10.10;99.90;;;;;;5003213;28;20042;-35
2023/12/28 04:37:51;;;;;;;6.72;1.20;;;10.00;99.90;;;;;;5002698;28;20392;-35
2023/12/28 04:40:17;;;;;;;6.13;1.17;;;10.00;99.90;;;;;;5015647;28;20117;-35
2023/12/28 04:42:43;;;;;;;7.93;1.25;;;10.10;99.90;;;;;;5020290;28;20057;-34
2023/12/28 04:45:12;;;;;;;6.85;1.35;;;10.10;99.90;;;;;;5020078;28;20054;-37
2023/12/28 04:47:38;;;;;;;8.10;1.75;;;10.00;99.90;;;;;;5023465;28;20133;-35
2023/12/28 04:50:05;;;;;;;8.38;1.65;;;10.10;99.90;;;;;;5026604;28;20509;-34
2023/12/28 04:52:32;;;;;;;4.53;1.20;;;10.10;99.90;;;;;;5028102;28;20102;-34
2023/12/28 04:54:58;;;;;;;8.68;1.40;;;10.10;99.90;;;;;;5027733;28;20053;-34
2023/12/28 04:57:27;;;;;;;7.30;1.73;;;10.00;99.90;;;;;;5024572;28;20053;-35
2023/12/28 04:59:53;;;;;;;7.22;1.20;;;10.10;99.90;;;;;;5026049;28;20062;-35
2023/12/28 05:02:19;;;;;;;10.55;1.48;;;10.10;99.90;;;;;;5025414;28;20057;-35
2023/12/28 05:04:45;;;;;;;6.93;1.42;;;10.20;99.90;;;;;;5023522;28;20057;-36
2023/12/28 05:07:10;;;;;;;7.15;1.20;;;10.20;99.90;;;;;;5022850;28;20060;-35
2023/12/28 05:09:36;;;;;;;6.32;1.48;;;10.20;99.90;;;;;;5028694;28;20056;-35
2023/12/28 05:12:02;;;;;;;6.18;1.83;;;10.30;99.90;;;;;;5026738;28;20506;-35
2023/12/28 05:14:28;;;;;;;7.15;1.90;;;10.20;99.90;;;;;;5020632;28;20057;-36
2023/12/28 05:16:54;;;;;;;7.35;1.42;;;10.30;99.90;;;;;;5023405;28;20045;-35
2023/12/28 05:19:20;;;;;;;9.88;1.48;;;10.30;99.90;;;;;;5024078;28;20533;-35
2023/12/28 05:21:46;;;;;;;9.52;1.20;;;10.30;99.90;;;;;;5022502;28;20136;-35
2023/12/28 05:24:12;;;;;;;8.52;1.35;;;10.30;99.90;;;;;;5022708;28;20103;-34
2023/12/28 05:26:38;;;;;;;10.35;1.67;;;10.30;99.90;;;;;;5022392;28;20050;-34
2023/12/28 05:29:04;;;;;;;7.80;0.98;;;10.30;99.90;;;;;;5017495;28;20060;-35
2023/12/28 05:31:29;;;;;;;10.88;1.55;;;10.30;99.90;;;;;;5022023;28;20061;-34
2023/12/28 05:33:55;;;;;;;5.75;1.58;;;10.40;99.90;;;;;;5027362;28;20196;-35
2023/12/28 05:36:21;;;;;;;11.50;1.73;;;10.40;99.90;;;;;;5018392;28;20091;-35
2023/12/28 05:38:47;;;;;;;7.57;1.17;;;10.30;99.90;;;;;;5015577;28;20058;-35
2023/12/28 05:41:12;;;;;;;13.70;1.77;;;10.30;99.90;;;;;;5024910;28;20065;-34
2023/12/28 05:43:38;;;;;;;13.07;1.35;;;10.30;99.90;;;;;;5026697;28;20041;-36
2023/12/28 05:46:04;;;;;;;10.50;1.92;;;10.30;99.90;;;;;;5026637;28;20049;-35
2023/12/28 05:48:30;;;;;;;10.48;1.60;;;10.40;99.90;;;;;;5025051;28;20057;-35
2023/12/28 05:50:59;;;;;;;6.90;1.30;;;10.40;99.90;;;;;;5021365;28;20112;-35
2023/12/28 05:53:26;;;;;;;11.20;1.88;;;10.40;99.90;;;;;;5026731;28;20053;-39
2023/12/28 05:55:53;;;;;;;7.90;1.75;;;10.40;99.90;;;;;;5025727;28;20140;-34
2023/12/28 05:58:18;;;;;;;5.82;1.27;;;10.40;99.90;;;;;;5023123;28;20184;-35
2023/12/28 06:00:46;;;;;;;8.48;1.42;;;10.40;99.90;;;;;;5022120;28;20438;-35
2023/12/28 06:03:12;;;;;;;12.13;1.83;;;10.30;99.90;;;;;;5017523;28;20045;-35
2023/12/28 06:05:38;;;;;;;8.45;1.45;;;10.30;99.90;;;;;;5023501;28;20203;-35
2023/12/28 06:08:04;;;;;;;9.10;1.23;;;10.30;99.90;;;;;;5023032;28;20068;-35
2023/12/28 06:10:29;;;;;;;7.60;1.75;;;10.30;99.90;;;;;;5025788;28;20572;-35
2023/12/28 06:12:55;;;;;;;9.65;1.20;;;10.30;99.90;;;;;;5024812;28;20052;-35
2023/12/28 06:15:21;;;;;;;8.05;1.88;;;10.30;99.90;;;;;;5025006;28;20057;-35
2023/12/28 06:17:47;;;;;;;5.88;1.48;;;10.30;99.90;;;;;;5024451;28;20430;-36
2023/12/28 06:20:12;;;;;;;6.85;0.88;;;10.30;99.90;;;;;;5022231;28;20057;-35
2023/12/28 06:22:38;;;;;;;10.75;1.30;;;10.30;99.90;;;;;;5033213;28;20053;-35
2023/12/28 06:25:04;;;;;;;7.43;2.03;;;10.40;99.90;;;;;;5026767;28;20571;-35
2023/12/28 06:27:30;;;;;;;10.57;1.98;;;10.40;99.90;;;;;;5023262;28;20053;-35
2023/12/28 06:29:56;;;;;;;13.52;1.33;;;10.40;99.90;;;;;;5022502;28;20057;-36
2023/12/28 06:32:22;;;;;;;8.88;1.52;;;10.50;99.90;;;;;;5023874;28;20045;-35
2023/12/28 06:34:48;;;;;;;11.45;1.40;;;10.50;99.90;;;;;;5024242;28;20411;-35
2023/12/28 06:37:14;;;;;;;10.00;1.33;;;10.50;99.90;;;;;;5022368;28;20487;-34
2023/12/28 06:39:40;;;;;;;8.65;1.38;;;10.50;99.90;;;;;;5026823;28;20100;-36
2023/12/28 06:42:06;;;;;;;6.90;1.35;;;10.60;99.90;;;;;;5021435;28;21821;-35
2023/12/28 06:44:32;;;;;;;8.80;2.10;;;10.60;99.90;;;;;;5027111;28;20059;-35
2023/12/28 06:46:58;;;;;;;11.60;1.52;;;10.60;99.90;;;;;;5023682;28;20132;-35
2023/12/28 06:49:24;;;;;;;8.80;1.60;;;10.60;99.90;;;;;;5018557;28;20427;-34
2023/12/28 06:51:50;;;;;;;10.43;1.65;;;10.60;99.90;;;;;;5017753;28;20060;-36
2023/12/28 06:54:16;;;;;;;8.10;1.38;;;10.60;99.90;;;;;;5021982;28;20046;-35
2023/12/28 06:56:42;;;;;;;7.85;1.35;;;10.60;99.90;;;;;;5011098;28;20185;-35
2023/12/28 06:59:11;;;;;;;13.02;1.58;;;10.60;99.90;;;;;;5001330;28;20060;-35
2023/12/28 07:01:39;;;;;;;7.82;1.83;;;10.60;99.90;;;;;;5000421;28;20056;-35
2023/12/28 07:04:04;;;;;;;12.95;1.63;;;10.60;99.90;;;;;;5004412;28;20111;-35
2023/12/28 07:06:30;;;;;;;10.52;1.58;;;10.60;99.90;;;;;;5003280;28;20054;-35
2023/12/28 07:08:56;;;;;;;9.82;1.67;;;10.60;99.90;;;;;;5000436;28;20042;-35
2023/12/28 07:11:22;;;;;;;6.88;1.63;;;10.60;99.90;;;;;;5006067;28;20116;-36
2023/12/28 07:13:48;;;;;;;11.63;2.00;;;10.60;99.90;;;;;;5003333;28;20104;-35
2023/12/28 07:16:14;;;;;;;17.58;2.80;;;10.60;99.90;;;;;;5002228;28;20061;-36
2023/12/28 07:18:39;;;;;;;13.20;1.48;;;10.60;99.90;;;;;;5002510;28;20115;-36
2023/12/28 07:21:06;;;;;;;16.27;2.45;;;10.60;99.90;;;;;;4995063;28;20061;-36
2023/12/28 07:23:31;;;;;;;9.75;1.60;;;10.60;99.90;;;;;;5001239;28;20561;-36
2023/12/28 07:25:57;;;;;;;13.80;1.85;;;10.60;99.90;;;;;;4998694;28;20069;-36
2023/12/28 07:28:23;;;;;;;8.77;1.38;;;10.60;99.90;;;;;;4994835;28;20099;-35
2023/12/28 07:30:49;;;;;;;16.00;1.40;;;10.60;99.90;;;;;;5014279;28;20106;-35
2023/12/28 07:33:14;;;;;;;10.18;1.77;;;10.60;99.90;;;;;;5014631;28;20057;-36
2023/12/28 07:35:40;;;;;;;10.55;1.83;;;10.60;99.90;;;;;;5020345;28;20088;-36
2023/12/28 07:38:06;;;;;;;7.70;1.80;;;10.50;99.90;;;;;;5015887;28;20115;-36
2023/12/28 07:40:32;;;;;;;15.15;1.90;;;10.50;99.90;;;;;;5020991;28;20421;-36
2023/12/28 07:42:57;;;;;;;9.95;2.13;;;10.50;99.90;;;;;;5019021;28;20513;-35
2023/12/28 07:45:24;;;;;;;10.43;1.90;;;10.50;99.90;;;;;;5016831;28;21703;-35
2023/12/28 07:47:52;;;;;;;9.27;1.63;;;10.40;99.90;;;;;;5014488;28;20056;-35
2023/12/28 07:50:18;;;;;;;14.20;2.40;;;10.40;99.90;;;;;;5025659;28;20057;-35
2023/12/28 07:52:46;;;;;;;10.82;2.30;;;10.40;99.90;;;;;;5018300;28;20049;-35
2023/12/28 07:55:12;;;;;;;12.18;2.05;;;10.40;99.90;;;;;;5018843;28;20494;-34
2023/12/28 07:57:38;;;;;;;13.35;2.40;;;10.40;99.90;;;;;;5024729;28;20047;-34
2023/12/28 08:00:05;;;;;;;11.50;2.35;;;10.40;99.90;;;;;;5023230;28;20469;-35
2023/12/28 08:02:31;;;;;;;10.88;1.63;;;10.40;99.90;;;;;;5021296;28;20053;-35
2023/12/28 08:04:57;;;;;;;19.90;3.25;;;10.40;99.90;;;;;;5021872;28;20053;-35
2023/12/28 08:07:22;;;;;;;13.82;2.05;;;10.40;99.90;;;;;;5021561;28;20060;-36
2023/12/28 08:09:48;;;;;;;8.60;1.98;;;10.40;99.90;;;;;;5024763;28;20053;-36
2023/12/28 08:12:16;;;;;;;12.45;2.03;;;10.40;99.90;;;;;;5023250;28;20080;-35
2023/12/28 08:14:43;;;;;;;10.82;2.13;;;10.40;99.90;;;;;;5022088;28;20547;-36
2023/12/28 08:17:08;;;;;;;13.65;2.33;;;10.40;99.90;;;;;;5022469;28;20072;-35
2023/12/28 08:19:34;;;;;;;12.65;1.90;;;10.40;99.90;;;;;;5020160;28;21403;-35
2023/12/28 08:22:00;;;;;;;11.43;2.17;;;10.40;99.90;;;;;;5017661;28;20049;-35
2023/12/28 08:24:25;;;;;;;13.52;1.92;;;10.40;99.90;;;;;;5016731;28;20091;-35
2023/12/28 08:26:51;;;;;;;16.20;2.40;;;10.40;99.90;;;;;;5020067;28;20068;-35
2023/12/28 08:29:18;;;;;;;16.13;1.90;;;10.40;99.90;;;;;;5020524;28;20423;-35
2023/12/28 08:31:43;;;;;;;14.40;2.15;;;10.40;99.90;;;;;;5018475;28;20057;-35
2023/12/28 08:34:09;;;;;;;14.77;1.95;;;10.40;99.90;;;;;;5022110;28;20061;-35
2023/12/28 08:36:35;;;;;;;8.50;1.90;;;10.40;99.90;;;;;;5016174;28;20415;-36
2023/12/28 08:39:00;;;;;;;15.93;2.70;;;10.40;99.90;;;;;;5013247;28;20049;-35
2023/12/28 08:41:26;;;;;;;13.43;2.33;;;10.40;99.90;;;;;;5018850;28;20056;-36
2023/12/28 08:43:56;;;;;;;15.63;2.17;;;10.40;99.90;;;;;;5003998;28;20065;-36
2023/12/28 08:46:24;;;;;;;11.32;1.80;;;10.40;99.90;;;;;;5013354;28;20513;-36
2023/12/28 08:48:50;;;;;;;17.48;2.55;;;10.40;99.90;;;;;;5018329;28;20693;-35
2023/12/28 08:51:16;;;;;;;12.80;1.80;;;10.50;99.90;;;;;;5021289;28;20050;-41
2023/12/28 08:53:42;;;;;;;11.40;1.77;;;10.50;99.90;;;;;;5022947;28;20052;-36
2023/12/28 08:56:17;;;;;;;8.07;1.63;;;10.50;99.90;;;;;;5017275;28;20041;-35
2023/12/28 08:58:43;;;;;;;12.48;2.15;;;10.50;99.90;;;;;;5020908;28;20041;-35
2023/12/28 09:01:08;;;;;;;9.38;1.50;;;10.50;99.90;;;;;;5017546;28;20184;-35
2023/12/28 09:03:34;;;;;;;16.55;2.40;;;10.50;99.90;;;;;;5019091;28;20423;-35
2023/12/28 09:06:00;;;;;;;12.35;1.70;;;10.50;99.90;;;;;;5018677;28;20057;-35
2023/12/28 09:08:25;;;;;;;20.00;2.35;;;10.50;99.90;;;;;;5014468;28;20048;-35
2023/12/28 09:10:51;;;;;;;12.63;2.75;;;10.60;99.90;;;;;;5022058;28;20053;-35
2023/12/28 09:13:17;;;;;;;12.95;2.38;;;10.60;99.90;;;;;;5020532;28;20061;-36
2023/12/28 09:15:43;;;;;;;12.15;1.77;;;10.60;99.90;;;;;;5021018;28;20050;-34
2023/12/28 09:18:09;;;;;;;14.98;2.47;;;10.60;99.90;;;;;;5013311;28;20438;-37
2023/12/28 09:20:35;;;;;;;10.25;2.15;;;10.60;99.90;;;;;;5026105;28;20057;-36
2023/12/28 09:23:01;;;;;;;13.30;2.42;;;10.60;99.90;;;;;;5019776;28;20188;-35
2023/12/28 09:25:27;;;;;;;9.40;1.75;;;10.60;99.90;;;;;;5017869;28;20444;-36
2023/12/28 09:27:53;;;;;;;11.40;2.00;;;10.60;99.90;;;;;;5003849;28;20064;-35
2023/12/28 09:30:19;;;;;;;11.45;2.17;;;10.60;99.90;;;;;;5013783;28;20049;-35
2023/12/28 09:32:44;;;;;;;10.65;2.13;;;10.60;99.90;;;;;;5019248;28;20054;-36
2023/12/28 09:35:10;;;;;;;16.92;2.35;;;10.60;99.90;;;;;;5003901;28;22342;-36
2023/12/28 09:37:36;;;;;;;18.55;2.97;;;10.70;99.90;;;;;;5000150;28;20470;-35
2023/12/28 09:40:03;;;;;;;15.52;2.55;;;10.70;99.90;;;;;;5004390;28;20545;-35
2023/12/28 09:42:35;;;;;;;22.52;2.35;;;10.70;99.90;;;;;;5007610;28;20056;-36
2023/12/28 09:45:01;;;;;;;18.83;2.83;;;10.70;99.90;;;;;;5002191;28;20050;-35
2023/12/28 09:47:26;;;;;;;15.85;2.65;;;10.70;99.90;;;;;;5004183;28;20057;-35
2023/12/28 09:49:52;;;;;;;11.35;1.77;;;10.70;99.90;;;;;;5000557;28;20896;-35
2023/12/28 09:52:18;;;;;;;11.93;1.75;;;10.70;99.90;;;;;;5008083;28;20064;-36
2023/12/28 09:54:44;;;;;;;13.07;2.83;;;10.80;99.90;;;;;;5003337;28;20125;-37
2023/12/28 09:57:11;;;;;;;8.93;1.80;;;10.80;99.90;;;;;;4999833;28;20507;-35
2023/12/28 09:59:39;;;;;;;17.92;2.55;;;10.80;99.90;;;;;;4999831;28;20054;-35
2023/12/28 10:02:04;;;;;;;13.63;2.78;;;10.80;99.90;;;;;;4999198;28;20046;-35
2023/12/28 10:04:31;;;;;;;9.85;1.55;;;10.80;99.90;;;;;;5004660;28;20052;-35
2023/12/28 10:06:57;;;;;;;11.25;1.98;;;10.80;99.90;;;;;;5006350;28;20092;-35
2023/12/28 10:09:26;;;;;;;16.38;2.25;;;10.80;99.90;;;;;;5019856;28;20463;-35
2023/12/28 10:11:53;;;;;;;12.95;2.13;;;10.80;99.90;;;;;;5014478;28;20053;-37
2023/12/28 10:14:20;;;;;;;12.52;2.60;;;10.80;99.90;;;;;;5021761;28;20503;-36
2023/12/28 10:16:47;;;;;;;10.07;2.08;;;10.90;99.90;;;;;;5017010;28;20045;-36
2023/12/28 10:19:13;;;;;;;8.93;1.60;;;10.90;99.90;;;;;;5018768;28;20057;-36
2023/12/28 10:21:43;;;;;;;13.10;2.40;;;10.90;99.90;;;;;;5020594;28;20089;-35
2023/12/28 10:24:10;;;;;;;9.80;1.90;;;10.90;99.90;;;;;;5023709;28;20798;-36
2023/12/28 10:26:36;;;;;;;11.95;1.55;;;10.90;99.90;;;;;;5019755;28;20041;-35
2023/12/28 10:29:03;;;;;;;10.68;1.85;;;10.90;99.90;;;;;;5023664;28;20041;-35
2023/12/28 10:31:29;;;;;;;12.65;1.65;;;10.80;99.90;;;;;;5023833;28;20048;-36
2023/12/28 10:33:59;;;;;;;12.40;2.08;;;10.80;99.90;;;;;;5017135;28;20092;-36
2023/12/28 10:36:27;;;;;;;11.48;2.70;;;10.80;99.90;;;;;;5020578;28;20041;-35
2023/12/28 10:38:54;;;;;;;12.57;2.35;;;10.80;99.90;;;;;;5017209;28;20399;-35
2023/12/28 10:41:21;;;;;;;10.95;1.70;;;10.80;99.90;;;;;;5021263;28;20060;-36
2023/12/28 10:44:04;;;;;;;14.07;1.83;;;10.80;99.90;;;;;;5019125;28;20137;-37
2023/12/28 10:46:32;;;;;;;11.85;1.50;;;10.80;99.90;;;;;;5021243;28;20483;-35
2023/12/28 10:49:00;;;;;;;17.02;2.15;;;10.70;99.90;;;;;;5026980;28;20052;-37
2023/12/28 10:51:29;;;;;;;15.15;2.10;;;10.70;99.90;;;;;;5024330;28;20049;-34
2023/12/28 10:54:13;;;;;;;10.63;2.42;;;10.70;99.90;;;;;;5020782;28;20053;-34
2023/12/28 10:56:47;;;;;;;14.55;2.28;;;10.80;99.90;;;;;;5018830;28;20060;-35
2023/12/28 10:59:39;;;;;;;14.02;2.60;;;10.80;99.90;;;;;;5024166;28;20052;-34
2023/12/28 11:02:06;;;;;;;13.57;2.38;;;10.90;99.90;;;;;;5015485;28;20068;-35
2023/12/28 11:04:46;;;;;;;12.07;1.73;;;11.00;99.90;;;;;;5020975;28;20076;-35
2023/12/28 11:07:14;;;;;;;8.40;1.75;;;11.00;99.90;;;;;;5022543;28;20096;-35
2023/12/28 11:09:42;;;;;;;10.23;1.92;;;11.00;99.90;;;;;;5015339;28;20108;-35
2023/12/28 11:12:10;;;;;;;16.88;1.92;;;11.10;99.90;;;;;;4997895;28;20521;-35
2023/12/28 11:14:38;;;;;;;10.18;1.80;;;11.10;99.90;;;;;;5017576;28;20418;-35
2023/12/28 11:17:09;;;;;;;11.35;2.28;;;11.10;99.90;;;;;;5017484;28;20060;-36
2023/12/28 11:19:35;;;;;;;10.23;1.90;;;11.10;99.90;;;;;;5015022;28;20054;-35
2023/12/28 11:22:05;;;;;;;14.27;2.35;;;11.00;99.90;;;;;;5017681;28;20050;-35
2023/12/28 11:24:32;;;;;;;12.00;2.17;;;11.00;99.90;;;;;;5020373;28;20052;-35
2023/12/28 11:26:57;;;;;;;10.48;1.73;;;11.00;99.90;;;;;;5021402;28;20046;-35
2023/12/28 11:29:23;;;;;;;7.15;1.30;;;11.00;99.90;;;;;;5021836;28;20419;-36
2023/12/28 11:31:53;;;;;;;15.20;1.95;;;11.00;99.90;;;;;;5018703;28;20052;-35
2023/12/28 11:34:19;;;;;;;12.55;2.38;;;11.00;99.90;;;;;;5024716;28;20573;-35
2023/12/28 11:36:54;;;;;;;18.02;2.33;;;11.00;99.90;;;;;;5051272;28;20126;-35
2023/12/28 11:39:31;;;;;;;13.85;2.45;;;11.00;99.90;;;;;;5022109;28;20499;-36
2023/12/28 11:42:07;;;;;;;13.77;2.20;;;10.90;99.90;;;;;;5022349;28;20041;-35
2023/12/28 11:44:44;;;;;;;10.20;2.00;;;11.00;99.90;;;;;;5022842;28;20152;-37
2023/12/28 11:47:14;;;;;;;13.13;2.75;;;11.00;99.90;;;;;;5018500;28;20056;-35
2023/12/28 11:49:40;;;;;;;13.85;2.08;;;10.90;99.90;;;;;;5022078;28;20049;-34
2023/12/28 11:52:07;;;;;;;17.58;2.53;;;10.90;99.90;;;;;;5018975;28;20144;-35
2023/12/28 11:54:32;;;;;;;11.10;1.90;;;10.90;99.90;;;;;;5022680;28;20045;-36
2023/12/28 11:56:58;;;;;;;14.80;2.33;;;11.00;99.90;;;;;;5020962;28;20110;-35
2023/12/28 11:59:24;;;;;;;13.48;2.00;;;11.00;99.90;;;;;;5021655;28;20144;-36
2023/12/28 12:01:53;;;;;;;13.77;2.50;;;11.00;99.90;;;;;;5013981;28;20049;-35
2023/12/28 12:04:20;;;;;;;17.02;2.08;;;11.00;99.90;;;;;;5018378;28;20550;-35
2023/12/28 12:06:47;;;;;;;9.93;1.50;;;11.00;99.90;;;;;;5020957;28;20068;-35
2023/12/28 12:09:16;;;;;;;10.05;2.03;;;11.00;99.90;;;;;;5023905;28;20128;-35
2023/12/28 12:11:41;;;;;;;12.45;2.17;;;11.10;99.90;;;;;;5018926;28;20119;-35
2023/12/28 12:14:11;;;;;;;16.77;2.22;;;11.10;99.90;;;;;;5021559;28;20057;-35
2023/12/28 12:16:37;;;;;;;11.90;2.42;;;11.10;99.90;;;;;;5012692;28;20048;-35
2023/12/28 12:19:06;;;;;;;15.23;2.53;;;11.10;99.90;;;;;;5014958;28;20050;-34
2023/12/28 12:21:33;;;;;;;16.33;2.45;;;11.10;99.90;;;;;;5015585;28;20049;-35
2023/12/28 12:24:00;;;;;;;12.38;1.80;;;11.10;99.90;;;;;;5019249;28;20053;-35
2023/12/28 12:26:27;;;;;;;18.98;2.65;;;11.10;99.90;;;;;;5017799;28;20449;-36
2023/12/28 12:28:53;;;;;;;16.85;2.65;;;11.10;99.90;;;;;;5028944;28;20045;-36
2023/12/28 12:31:19;;;;;;;13.85;1.98;;;11.10;99.90;;;;;;5015645;28;20144;-36
2023/12/28 12:33:45;;;;;;;14.52;2.65;;;11.10;99.90;;;;;;5026701;28;20148;-36
2023/12/28 12:36:11;;;;;;;15.60;2.72;;;11.10;99.90;;;;;;5022999;28;20626;-35
2023/12/28 12:38:37;;;;;;;15.65;2.10;;;11.10;99.90;;;;;;5016429;28;20108;-35
2023/12/28 12:41:03;;;;;;;11.98;1.90;;;11.00;99.90;;;;;;5018060;28;20107;-36
2023/12/28 12:43:29;;;;;;;10.75;1.80;;;11.00;99.90;;;;;;5015592;28;20053;-35